createdAt,value
2022-12-20T00:07:54.622Z,3.5
2022-12-20T00:17:56.741Z,4.1
2022-12-20T00:27:55.821Z,4.3
2022-12-20T00:37:56.321Z,5.5
2022-12-20T00:47:56.878Z,4.1
2022-12-20T00:57:57.361Z,3.6
2022-12-20T01:07:57.887Z,4.1
2022-12-20T01:17:58.451Z,4.6
2022-12-20T01:27:58.985Z,4.2
2022-12-20T01:37:59.444Z,5.1
2022-12-20T01:47:59.979Z,7.5
2022-12-20T01:58:00.472Z,6.6
2022-12-20T02:08:00.975Z,7.1
2022-12-20T02:18:01.537Z,8.5
2022-12-20T02:28:01.963Z,9
2022-12-20T02:38:02.407Z,7.1
2022-12-20T02:48:02.937Z,7.6
2022-12-20T02:58:03.386Z,8.7
2022-12-20T03:08:03.806Z,8.3
2022-12-20T03:18:04.310Z,10.1
2022-12-20T03:28:04.702Z,9.8
2022-12-20T03:38:05.193Z,9.8
2022-12-20T03:48:05.983Z,10.5
2022-12-20T03:58:06.181Z,9.5
2022-12-20T04:08:06.622Z,12
2022-12-20T04:18:07.124Z,11.5
2022-12-20T04:28:07.453Z,11.5
2022-12-20T04:38:07.875Z,10.5
2022-12-20T04:48:28.979Z,8.8
2022-12-20T04:58:08.677Z,8.7
2022-12-20T05:08:09.125Z,7.8
2022-12-20T05:18:09.650Z,7
2022-12-20T05:28:10.025Z,5.6
2022-12-20T05:38:10.479Z,5.4
2022-12-20T05:48:10.963Z,4.4
2022-12-20T05:58:11.396Z,3.9
2022-12-20T06:08:13.235Z,3.7
2022-12-20T06:18:12.373Z,3.5
2022-12-20T06:28:12.775Z,3.5
2022-12-20T06:38:13.233Z,4.4
2022-12-20T06:48:13.634Z,5.3
2022-12-20T06:58:14.116Z,5
2022-12-20T07:08:14.558Z,5.8
2022-12-20T07:18:15.005Z,6.4
2022-12-20T07:28:15.492Z,6.3
2022-12-20T07:38:15.975Z,5.6
2022-12-20T07:48:21.513Z,6.7
2022-12-20T07:58:16.848Z,6.4
2022-12-20T08:08:17.269Z,5.9
2022-12-20T08:18:17.663Z,5.8
2022-12-20T08:28:18.055Z,5.8
2022-12-20T08:38:18.458Z,5.2
2022-12-20T08:48:18.871Z,4.9
2022-12-20T08:58:19.287Z,4.7
2022-12-20T09:08:19.678Z,4.8
2022-12-20T09:18:20.097Z,4.8
2022-12-20T09:28:20.506Z,4.4
2022-12-20T09:38:20.857Z,4.9
2022-12-20T09:48:21.220Z,4.3
2022-12-20T09:58:21.594Z,4.7
2022-12-20T10:08:21.920Z,4.4
2022-12-20T10:18:22.174Z,5.3
2022-12-20T10:28:22.457Z,5.1
2022-12-20T10:38:22.847Z,4.9
2022-12-20T10:48:23.109Z,4.6
2022-12-20T10:58:23.538Z,5.1
2022-12-20T11:08:36.526Z,5.4
2022-12-20T11:18:24.199Z,4.9
2022-12-20T11:28:24.522Z,5.1
2022-12-20T11:38:24.785Z,4.9
2022-12-20T11:48:25.062Z,5.5
2022-12-20T11:58:25.316Z,5.2
2022-12-20T12:08:25.620Z,6
2022-12-20T12:18:25.781Z,6.1
2022-12-20T12:28:26.091Z,6.1
2022-12-20T12:38:30.875Z,5.6
2022-12-20T12:48:28.688Z,5.6
2022-12-20T12:58:28.449Z,6.5
2022-12-20T13:04:01.136Z,6.5
2022-12-20T13:08:27.097Z,6.6
2022-12-20T13:18:27.459Z,6.4
2022-12-20T13:28:27.693Z,7
2022-12-20T13:38:28.003Z,6.9
2022-12-20T13:48:28.167Z,6.3
2022-12-20T13:58:28.414Z,6.8
2022-12-20T14:03:14.568Z,6.8
2022-12-20T14:08:28.762Z,6.2
2022-12-20T14:18:29.174Z,7
2022-12-20T14:18:33.549Z,7
2022-12-20T14:19:34.054Z,7
2022-12-20T14:20:20.220Z,7
2022-12-20T14:21:33.822Z,7
2022-12-20T14:27:23.573Z,7
2022-12-20T14:29:38.508Z,5.2
2022-12-20T14:30:30.084Z,5.2
2022-12-20T14:38:29.739Z,5.8
2022-12-20T14:48:30.028Z,5
2022-12-20T14:58:30.366Z,4.8
2022-12-20T15:05:01.279Z,4.8
2022-12-20T15:05:29.848Z,4.8
2022-12-20T15:08:32.323Z,4.4
2022-12-20T15:09:12.265Z,4.4
2022-12-20T15:09:48.106Z,4.4
2022-12-20T15:10:29.105Z,4.4
2022-12-20T15:18:32.472Z,4.3
2022-12-20T15:28:31.582Z,3.9
2022-12-20T15:38:55.199Z,4.7
2022-12-20T15:48:32.285Z,4.6
2022-12-20T15:58:32.693Z,4.4
2022-12-20T16:08:33.143Z,4.7
2022-12-20T16:18:34.806Z,4
2022-12-20T16:28:34.016Z,4.6
2022-12-20T16:38:37.064Z,3.9
2022-12-20T16:48:36.232Z,4.4
2022-12-20T16:59:00.409Z,4.2
2022-12-20T17:08:51.164Z,3.9
2022-12-20T17:18:36.272Z,3.8
2022-12-20T17:28:36.817Z,4.3
2022-12-20T17:38:37.283Z,3.9
2022-12-20T17:48:42.085Z,3.4
2022-12-20T17:58:38.282Z,4.4
2022-12-20T18:08:38.715Z,4.5
2022-12-20T18:18:39.178Z,3.9
2022-12-20T18:28:39.668Z,3.4
2022-12-20T18:38:40.194Z,3.9
2022-12-20T18:48:40.633Z,4.2
2022-12-20T18:58:41.164Z,3.8
2022-12-20T19:08:41.770Z,4
2022-12-20T19:18:42.316Z,4.1
2022-12-20T19:28:42.738Z,3.9
2022-12-20T19:38:43.321Z,4.2
2022-12-20T19:48:43.885Z,3.8
2022-12-20T19:58:45.575Z,3.8
2022-12-20T20:08:45.047Z,3.6
2022-12-20T20:18:45.770Z,3.5
2022-12-20T20:28:46.562Z,3.6
2022-12-20T20:38:47.040Z,3.7
2022-12-20T20:48:48.767Z,3.5
2022-12-20T20:58:48.290Z,3.6
2022-12-20T21:08:48.848Z,3.3
2022-12-20T21:18:50.927Z,3.3
2022-12-20T21:28:50.001Z,3.7
2022-12-20T21:38:50.620Z,3.6
2022-12-20T21:48:51.261Z,4.2
2022-12-20T21:58:53.899Z,4
2022-12-20T22:08:52.343Z,4
2022-12-20T22:18:52.844Z,3.7
2022-12-20T22:28:53.415Z,3.7
2022-12-20T22:38:54.000Z,4
2022-12-20T22:48:54.434Z,3.7
2022-12-20T22:58:54.943Z,3.4
2022-12-20T23:08:55.440Z,3.7
2022-12-20T23:18:55.945Z,3.7
2022-12-20T23:28:56.457Z,4.4
2022-12-20T23:33:15.044Z,4.4
2022-12-20T23:34:22.944Z,4.4
2022-12-20T23:34:39.538Z,4.4
2022-12-20T23:34:51.582Z,4.4
2022-12-20T23:35:23.087Z,4.4
2022-12-20T23:35:45.221Z,4.4
2022-12-20T23:36:05.809Z,4.4
2022-12-20T23:38:56.980Z,3.8
2022-12-20T23:39:09.773Z,3.8
2022-12-20T23:39:28.972Z,3.8
2022-12-20T23:48:57.449Z,3.6
2022-12-20T23:58:58.025Z,3.8
